sensor_id;sensor_type;location;lat;lon;timestamp;P1;durP1;ratioP1;P2;durP2;ratioP2
61673;SDS011;47573;43.832;5.974;2022-08-01T00:04:12;167.10;;;107.10;;
61673;SDS011;47573;43.832;5.974;2022-08-01T00:09:14;45.67;;;26.55;;
61673;SDS011;47573;43.832;5.974;2022-08-01T00:14:15;169.02;;;102.72;;
61673;SDS011;47573;43.832;5.974;2022-08-01T00:19:15;69.22;;;44.13;;
61673;SDS011;47573;43.832;5.974;2022-08-01T00:24:17;62.60;;;36.92;;
61673;SDS011;47573;43.832;5.974;2022-08-01T00:29:18;61.75;;;36.67;;
61673;SDS011;47573;43.832;5.974;2022-08-01T00:34:18;54.97;;;34.35;;
61673;SDS011;47573;43.832;5.974;2022-08-01T00:39:21;70.38;;;42.25;;
61673;SDS011;47573;43.832;5.974;2022-08-01T00:44:21;99.05;;;55.70;;
61673;SDS011;47573;43.832;5.974;2022-08-01T00:49:22;100.03;;;58.72;;
61673;SDS011;47573;43.832;5.974;2022-08-01T00:54:25;107.90;;;64.80;;
61673;SDS011;47573;43.832;5.974;2022-08-01T00:59:26;124.63;;;74.43;;
61673;SDS011;47573;43.832;5.974;2022-08-01T01:04:27;123.35;;;71.78;;
61673;SDS011;47573;43.832;5.974;2022-08-01T01:09:32;139.07;;;87.03;;
61673;SDS011;47573;43.832;5.974;2022-08-01T01:14:38;147.70;;;91.43;;
61673;SDS011;47573;43.832;5.974;2022-08-01T01:19:45;165.90;;;106.95;;
61673;SDS011;47573;43.832;5.974;2022-08-01T01:24:53;148.43;;;93.50;;
61673;SDS011;47573;43.832;5.974;2022-08-01T01:30:09;141.27;;;89.43;;
61673;SDS011;47573;43.832;5.974;2022-08-01T01:35:12;135.10;;;85.30;;
61673;SDS011;47573;43.832;5.974;2022-08-01T01:40:15;149.82;;;92.15;;
61673;SDS011;47573;43.832;5.974;2022-08-01T01:45:19;159.52;;;102.35;;
61673;SDS011;47573;43.832;5.974;2022-08-01T01:50:21;145.20;;;92.10;;
61673;SDS011;47573;43.832;5.974;2022-08-01T01:55:23;130.45;;;80.18;;
61673;SDS011;47573;43.832;5.974;2022-08-01T02:00:26;113.90;;;68.57;;
61673;SDS011;47573;43.832;5.974;2022-08-01T02:05:29;106.97;;;63.38;;
61673;SDS011;47573;43.832;5.974;2022-08-01T02:10:30;116.05;;;67.00;;
61673;SDS011;47573;43.832;5.974;2022-08-01T02:15:34;116.22;;;67.25;;
61673;SDS011;47573;43.832;5.974;2022-08-01T02:20:36;111.85;;;67.95;;
61673;SDS011;47573;43.832;5.974;2022-08-01T02:25:38;103.38;;;61.78;;
61673;SDS011;47573;43.832;5.974;2022-08-01T02:30:44;105.88;;;60.30;;
61673;SDS011;47573;43.832;5.974;2022-08-01T02:35:48;105.38;;;60.42;;
61673;SDS011;47573;43.832;5.974;2022-08-01T02:40:52;96.45;;;56.88;;
61673;SDS011;47573;43.832;5.974;2022-08-01T02:45:57;92.53;;;54.42;;
61673;SDS011;47573;43.832;5.974;2022-08-01T02:51:03;86.57;;;52.28;;
61673;SDS011;47573;43.832;5.974;2022-08-01T02:56:06;83.47;;;48.92;;
61673;SDS011;47573;43.832;5.974;2022-08-01T03:01:11;85.40;;;50.67;;
61673;SDS011;47573;43.832;5.974;2022-08-01T03:06:13;80.65;;;47.65;;
61673;SDS011;47573;43.832;5.974;2022-08-01T03:11:15;80.38;;;46.70;;
61673;SDS011;47573;43.832;5.974;2022-08-01T03:16:18;70.07;;;41.15;;
61673;SDS011;47573;43.832;5.974;2022-08-01T03:21:21;74.10;;;44.10;;
61673;SDS011;47573;43.832;5.974;2022-08-01T03:26:24;74.78;;;45.97;;
61673;SDS011;47573;43.832;5.974;2022-08-01T03:31:29;73.95;;;43.08;;
61673;SDS011;47573;43.832;5.974;2022-08-01T03:36:30;71.68;;;41.85;;
61673;SDS011;47573;43.832;5.974;2022-08-01T03:46:42;59.22;;;34.03;;
61673;SDS011;47573;43.832;5.974;2022-08-01T03:51:47;54.00;;;32.35;;
61673;SDS011;47573;43.832;5.974;2022-08-01T03:56:49;58.05;;;35.00;;
61673;SDS011;47573;43.832;5.974;2022-08-01T04:01:55;50.17;;;30.43;;
61673;SDS011;47573;43.832;5.974;2022-08-01T04:06:58;50.88;;;30.38;;
61673;SDS011;47573;43.832;5.974;2022-08-01T04:11:59;54.67;;;32.75;;
61673;SDS011;47573;43.832;5.974;2022-08-01T04:17:01;50.00;;;30.90;;
61673;SDS011;47573;43.832;5.974;2022-08-01T04:22:02;48.88;;;29.50;;
61673;SDS011;47573;43.832;5.974;2022-08-01T04:27:05;50.50;;;31.00;;
61673;SDS011;47573;43.832;5.974;2022-08-01T04:32:11;49.60;;;29.60;;
61673;SDS011;47573;43.832;5.974;2022-08-01T04:37:14;44.50;;;26.85;;
61673;SDS011;47573;43.832;5.974;2022-08-01T04:42:15;45.90;;;28.25;;
61673;SDS011;47573;43.832;5.974;2022-08-01T04:47:17;44.35;;;26.80;;
61673;SDS011;47573;43.832;5.974;2022-08-01T04:52:18;42.78;;;27.05;;
61673;SDS011;47573;43.832;5.974;2022-08-01T04:57:19;43.05;;;26.83;;
61673;SDS011;47573;43.832;5.974;2022-08-01T05:02:21;42.50;;;26.52;;
61673;SDS011;47573;43.832;5.974;2022-08-01T05:07:21;36.38;;;22.67;;
61673;SDS011;47573;43.832;5.974;2022-08-01T05:12:22;35.92;;;22.05;;
61673;SDS011;47573;43.832;5.974;2022-08-01T05:17:24;36.70;;;22.13;;
61673;SDS011;47573;43.832;5.974;2022-08-01T05:22:24;40.53;;;23.83;;
61673;SDS011;47573;43.832;5.974;2022-08-01T05:27:25;38.58;;;21.23;;
61673;SDS011;47573;43.832;5.974;2022-08-01T05:32:27;14.10;;;8.10;;
61673;SDS011;47573;43.832;5.974;2022-08-01T05:37:27;14.43;;;7.28;;
61673;SDS011;47573;43.832;5.974;2022-08-01T05:42:28;9.38;;;6.68;;
61673;SDS011;47573;43.832;5.974;2022-08-01T05:47:30;10.25;;;6.47;;
61673;SDS011;47573;43.832;5.974;2022-08-01T05:52:31;8.95;;;5.57;;
61673;SDS011;47573;43.832;5.974;2022-08-01T05:57:31;17.65;;;7.63;;
61673;SDS011;47573;43.832;5.974;2022-08-01T06:02:33;9.63;;;5.60;;
61673;SDS011;47573;43.832;5.974;2022-08-01T06:07:33;12.55;;;5.97;;
61673;SDS011;47573;43.832;5.974;2022-08-01T06:12:34;10.18;;;5.25;;
61673;SDS011;47573;43.832;5.974;2022-08-01T06:17:36;10.13;;;5.65;;
61673;SDS011;47573;43.832;5.974;2022-08-01T06:22:37;11.98;;;5.75;;
61673;SDS011;47573;43.832;5.974;2022-08-01T06:27:38;13.30;;;5.78;;
61673;SDS011;47573;43.832;5.974;2022-08-01T06:32:39;11.52;;;5.70;;
61673;SDS011;47573;43.832;5.974;2022-08-01T06:37:40;8.35;;;5.63;;
61673;SDS011;47573;43.832;5.974;2022-08-01T06:42:41;8.95;;;5.78;;
61673;SDS011;47573;43.832;5.974;2022-08-01T06:47:44;6.40;;;5.30;;
61673;SDS011;47573;43.832;5.974;2022-08-01T06:52:45;10.77;;;5.43;;
61673;SDS011;47573;43.832;5.974;2022-08-01T06:57:47;8.68;;;6.47;;
61673;SDS011;47573;43.832;5.974;2022-08-01T07:02:49;160.80;;;43.40;;
61673;SDS011;47573;43.832;5.974;2022-08-01T07:07:50;19.85;;;9.02;;
61673;SDS011;47573;43.832;5.974;2022-08-01T07:12:50;12.18;;;7.07;;
61673;SDS011;47573;43.832;5.974;2022-08-01T07:17:52;12.25;;;7.20;;
61673;SDS011;47573;43.832;5.974;2022-08-01T07:22:53;10.23;;;7.40;;
61673;SDS011;47573;43.832;5.974;2022-08-01T07:27:53;9.02;;;7.32;;
61673;SDS011;47573;43.832;5.974;2022-08-01T07:32:55;10.48;;;7.55;;
61673;SDS011;47573;43.832;5.974;2022-08-01T07:37:56;16.52;;;7.90;;
61673;SDS011;47573;43.832;5.974;2022-08-01T07:42:56;9.73;;;7.20;;
61673;SDS011;47573;43.832;5.974;2022-08-01T07:48:02;11.80;;;7.30;;
61673;SDS011;47573;43.832;5.974;2022-08-01T07:53:03;10.50;;;7.15;;
61673;SDS011;47573;43.832;5.974;2022-08-01T07:58:04;8.75;;;7.03;;
61673;SDS011;47573;43.832;5.974;2022-08-01T08:03:06;10.45;;;7.10;;
61673;SDS011;47573;43.832;5.974;2022-08-01T08:08:06;10.23;;;6.85;;
61673;SDS011;47573;43.832;5.974;2022-08-01T08:13:08;11.50;;;7.60;;
61673;SDS011;47573;43.832;5.974;2022-08-01T08:18:10;11.27;;;7.03;;
61673;SDS011;47573;43.832;5.974;2022-08-01T08:23:11;9.75;;;6.55;;
61673;SDS011;47573;43.832;5.974;2022-08-01T08:28:11;10.20;;;6.75;;
61673;SDS011;47573;43.832;5.974;2022-08-01T08:33:13;13.85;;;7.63;;
61673;SDS011;47573;43.832;5.974;2022-08-01T08:38:14;10.60;;;6.80;;
61673;SDS011;47573;43.832;5.974;2022-08-01T08:43:14;8.85;;;6.90;;
61673;SDS011;47573;43.832;5.974;2022-08-01T08:48:17;9.88;;;6.70;;
61673;SDS011;47573;43.832;5.974;2022-08-01T08:53:18;10.48;;;6.90;;
61673;SDS011;47573;43.832;5.974;2022-08-01T08:58:18;9.52;;;6.80;;
61673;SDS011;47573;43.832;5.974;2022-08-01T09:03:21;11.20;;;7.30;;
61673;SDS011;47573;43.832;5.974;2022-08-01T09:08:22;8.38;;;6.80;;
61673;SDS011;47573;43.832;5.974;2022-08-01T09:13:22;8.93;;;7.00;;
61673;SDS011;47573;43.832;5.974;2022-08-01T09:18:31;8.35;;;6.88;;
61673;SDS011;47573;43.832;5.974;2022-08-01T09:23:33;10.15;;;6.97;;
61673;SDS011;47573;43.832;5.974;2022-08-01T09:28:34;9.15;;;6.85;;
61673;SDS011;47573;43.832;5.974;2022-08-01T09:33:53;8.60;;;6.68;;
61673;SDS011;47573;43.832;5.974;2022-08-01T09:38:54;8.32;;;6.95;;
61673;SDS011;47573;43.832;5.974;2022-08-01T09:43:55;10.63;;;6.97;;
61673;SDS011;47573;43.832;5.974;2022-08-01T09:48:58;96.00;;;23.98;;
61673;SDS011;47573;43.832;5.974;2022-08-01T09:54:00;12.10;;;7.40;;
61673;SDS011;47573;43.832;5.974;2022-08-01T09:59:01;9.57;;;6.93;;
61673;SDS011;47573;43.832;5.974;2022-08-01T10:04:05;9.18;;;7.10;;
61673;SDS011;47573;43.832;5.974;2022-08-01T10:09:07;8.75;;;6.85;;
61673;SDS011;47573;43.832;5.974;2022-08-01T10:14:07;12.60;;;7.00;;
61673;SDS011;47573;43.832;5.974;2022-08-01T10:19:09;10.27;;;6.53;;
61673;SDS011;47573;43.832;5.974;2022-08-01T10:24:10;8.57;;;6.82;;
61673;SDS011;47573;43.832;5.974;2022-08-01T10:29:11;8.68;;;6.72;;
61673;SDS011;47573;43.832;5.974;2022-08-01T10:34:13;9.77;;;6.70;;
61673;SDS011;47573;43.832;5.974;2022-08-01T10:39:16;11.02;;;6.57;;
61673;SDS011;47573;43.832;5.974;2022-08-01T10:44:17;9.02;;;6.75;;
61673;SDS011;47573;43.832;5.974;2022-08-01T10:49:19;8.20;;;6.65;;
61673;SDS011;47573;43.832;5.974;2022-08-01T10:59:25;129.60;;;38.65;;
61673;SDS011;47573;43.832;5.974;2022-08-01T11:04:44;8.60;;;6.43;;
61673;SDS011;47573;43.832;5.974;2022-08-01T11:09:58;34.65;;;12.55;;
61673;SDS011;47573;43.832;5.974;2022-08-01T11:15:20;8.13;;;6.55;;
61673;SDS011;47573;43.832;5.974;2022-08-01T11:20:24;10.88;;;7.40;;
61673;SDS011;47573;43.832;5.974;2022-08-01T11:25:27;9.05;;;6.95;;
61673;SDS011;47573;43.832;5.974;2022-08-01T11:30:48;8.30;;;6.60;;
61673;SDS011;47573;43.832;5.974;2022-08-01T11:41:21;9.52;;;7.00;;
61673;SDS011;47573;43.832;5.974;2022-08-01T11:51:57;9.05;;;6.70;;
61673;SDS011;47573;43.832;5.974;2022-08-01T11:57:00;8.13;;;6.40;;
61673;SDS011;47573;43.832;5.974;2022-08-01T12:02:03;9.57;;;6.97;;
61673;SDS011;47573;43.832;5.974;2022-08-01T12:07:12;11.65;;;7.13;;
61673;SDS011;47573;43.832;5.974;2022-08-01T12:12:16;47.35;;;14.88;;
61673;SDS011;47573;43.832;5.974;2022-08-01T12:17:17;8.85;;;6.90;;
61673;SDS011;47573;43.832;5.974;2022-08-01T12:22:21;9.43;;;6.80;;
61673;SDS011;47573;43.832;5.974;2022-08-01T12:27:26;7.57;;;6.63;;
61673;SDS011;47573;43.832;5.974;2022-08-01T12:32:28;7.70;;;6.57;;
61673;SDS011;47573;43.832;5.974;2022-08-01T12:37:31;9.80;;;7.00;;
61673;SDS011;47573;43.832;5.974;2022-08-01T12:42:32;7.82;;;6.55;;
61673;SDS011;47573;43.832;5.974;2022-08-01T12:47:37;8.82;;;6.68;;
61673;SDS011;47573;43.832;5.974;2022-08-01T12:52:40;9.07;;;6.78;;
61673;SDS011;47573;43.832;5.974;2022-08-01T12:57:41;7.97;;;6.70;;
61673;SDS011;47573;43.832;5.974;2022-08-01T13:02:43;207.73;;;119.90;;
61673;SDS011;47573;43.832;5.974;2022-08-01T13:07:48;151.25;;;90.15;;
61673;SDS011;47573;43.832;5.974;2022-08-01T13:12:50;98.30;;;57.97;;
61673;SDS011;47573;43.832;5.974;2022-08-01T13:17:52;73.43;;;45.15;;
61673;SDS011;47573;43.832;5.974;2022-08-01T13:22:55;62.78;;;39.95;;
61673;SDS011;47573;43.832;5.974;2022-08-01T13:28:16;53.80;;;34.80;;
61673;SDS011;47573;43.832;5.974;2022-08-01T13:33:18;46.70;;;29.65;;
61673;SDS011;47573;43.832;5.974;2022-08-01T13:38:20;215.73;;;105.63;;
61673;SDS011;47573;43.832;5.974;2022-08-01T13:43:20;171.60;;;98.10;;
61673;SDS011;47573;43.832;5.974;2022-08-01T13:48:21;139.95;;;68.43;;
61673;SDS011;47573;43.832;5.974;2022-08-01T13:53:23;83.05;;;50.92;;
61673;SDS011;47573;43.832;5.974;2022-08-01T13:58:23;73.03;;;43.50;;
61673;SDS011;47573;43.832;5.974;2022-08-01T14:03:24;63.55;;;39.65;;
61673;SDS011;47573;43.832;5.974;2022-08-01T14:08:26;58.95;;;36.80;;
61673;SDS011;47573;43.832;5.974;2022-08-01T14:13:27;52.28;;;33.70;;
61673;SDS011;47573;43.832;5.974;2022-08-01T14:18:27;46.90;;;29.95;;
61673;SDS011;47573;43.832;5.974;2022-08-01T14:23:29;44.60;;;27.80;;
61673;SDS011;47573;43.832;5.974;2022-08-01T14:28:30;39.63;;;25.83;;
61673;SDS011;47573;43.832;5.974;2022-08-01T14:33:30;35.97;;;23.73;;
61673;SDS011;47573;43.832;5.974;2022-08-01T14:38:32;123.32;;;42.83;;
61673;SDS011;47573;43.832;5.974;2022-08-01T14:43:33;34.03;;;22.10;;
61673;SDS011;47573;43.832;5.974;2022-08-01T14:48:33;29.40;;;20.33;;
61673;SDS011;47573;43.832;5.974;2022-08-01T14:53:35;27.70;;;19.65;;
61673;SDS011;47573;43.832;5.974;2022-08-01T14:58:36;136.02;;;81.97;;
61673;SDS011;47573;43.832;5.974;2022-08-01T15:03:36;87.20;;;52.63;;
61673;SDS011;47573;43.832;5.974;2022-08-01T15:08:38;123.72;;;78.13;;
61673;SDS011;47573;43.832;5.974;2022-08-01T15:13:39;104.70;;;65.32;;
61673;SDS011;47573;43.832;5.974;2022-08-01T15:18:39;80.10;;;50.60;;
61673;SDS011;47573;43.832;5.974;2022-08-01T15:23:41;65.63;;;43.92;;
61673;SDS011;47573;43.832;5.974;2022-08-01T15:28:42;58.83;;;38.28;;
61673;SDS011;47573;43.832;5.974;2022-08-01T15:33:42;55.65;;;35.92;;
61673;SDS011;47573;43.832;5.974;2022-08-01T15:38:44;54.65;;;35.20;;
61673;SDS011;47573;43.832;5.974;2022-08-01T15:43:45;54.63;;;34.05;;
61673;SDS011;47573;43.832;5.974;2022-08-01T15:48:45;58.25;;;35.25;;
61673;SDS011;47573;43.832;5.974;2022-08-01T15:53:47;60.70;;;34.85;;
61673;SDS011;47573;43.832;5.974;2022-08-01T15:58:47;186.98;;;107.68;;
61673;SDS011;47573;43.832;5.974;2022-08-01T16:03:48;130.73;;;74.20;;
61673;SDS011;47573;43.832;5.974;2022-08-01T16:08:50;316.27;;;177.07;;
61673;SDS011;47573;43.832;5.974;2022-08-01T16:13:51;160.73;;;90.15;;
61673;SDS011;47573;43.832;5.974;2022-08-01T16:18:51;141.90;;;79.93;;
61673;SDS011;47573;43.832;5.974;2022-08-01T16:23:53;124.60;;;71.85;;
61673;SDS011;47573;43.832;5.974;2022-08-01T16:28:54;174.23;;;100.00;;
61673;SDS011;47573;43.832;5.974;2022-08-01T16:33:54;262.75;;;155.02;;
61673;SDS011;47573;43.832;5.974;2022-08-01T16:38:56;354.27;;;216.02;;
61673;SDS011;47573;43.832;5.974;2022-08-01T16:43:57;224.85;;;129.20;;
61673;SDS011;47573;43.832;5.974;2022-08-01T16:48:57;195.00;;;111.15;;
61673;SDS011;47573;43.832;5.974;2022-08-01T16:53:59;163.05;;;94.72;;
61673;SDS011;47573;43.832;5.974;2022-08-01T16:59:00;169.38;;;91.55;;
61673;SDS011;47573;43.832;5.974;2022-08-01T17:04:00;150.05;;;82.93;;
61673;SDS011;47573;43.832;5.974;2022-08-01T17:09:03;438.60;;;143.20;;
61673;SDS011;47573;43.832;5.974;2022-08-01T17:14:04;132.05;;;69.53;;
61673;SDS011;47573;43.832;5.974;2022-08-01T17:19:05;127.57;;;66.35;;
61673;SDS011;47573;43.832;5.974;2022-08-01T17:24:07;126.15;;;63.65;;
61673;SDS011;47573;43.832;5.974;2022-08-01T17:29:08;135.68;;;65.57;;
61673;SDS011;47573;43.832;5.974;2022-08-01T17:34:08;113.35;;;58.80;;
61673;SDS011;47573;43.832;5.974;2022-08-01T17:39:10;103.22;;;55.97;;
61673;SDS011;47573;43.832;5.974;2022-08-01T17:44:11;198.77;;;72.22;;
61673;SDS011;47573;43.832;5.974;2022-08-01T17:49:11;85.47;;;48.45;;
61673;SDS011;47573;43.832;5.974;2022-08-01T17:54:13;85.40;;;47.65;;
61673;SDS011;47573;43.832;5.974;2022-08-01T17:59:14;89.15;;;48.72;;
61673;SDS011;47573;43.832;5.974;2022-08-01T18:04:14;86.88;;;51.55;;
61673;SDS011;47573;43.832;5.974;2022-08-01T18:09:16;138.20;;;85.00;;
61673;SDS011;47573;43.832;5.974;2022-08-01T18:14:16;167.32;;;102.03;;
61673;SDS011;47573;43.832;5.974;2022-08-01T18:19:17;172.50;;;105.00;;
61673;SDS011;47573;43.832;5.974;2022-08-01T18:24:19;220.80;;;138.20;;
61673;SDS011;47573;43.832;5.974;2022-08-01T18:29:20;296.33;;;198.38;;
61673;SDS011;47573;43.832;5.974;2022-08-01T18:34:20;263.90;;;167.90;;
61673;SDS011;47573;43.832;5.974;2022-08-01T18:39:22;267.10;;;173.85;;
61673;SDS011;47573;43.832;5.974;2022-08-01T18:44:23;308.17;;;199.52;;
61673;SDS011;47573;43.832;5.974;2022-08-01T18:49:23;333.08;;;218.73;;
61673;SDS011;47573;43.832;5.974;2022-08-01T18:54:25;229.48;;;142.27;;
61673;SDS011;47573;43.832;5.974;2022-08-01T18:59:26;112.88;;;68.53;;
61673;SDS011;47573;43.832;5.974;2022-08-01T19:04:26;119.18;;;71.90;;
61673;SDS011;47573;43.832;5.974;2022-08-01T19:09:28;61.92;;;37.45;;
61673;SDS011;47573;43.832;5.974;2022-08-01T19:14:29;93.63;;;57.13;;
61673;SDS011;47573;43.832;5.974;2022-08-01T19:19:29;35.10;;;21.35;;
61673;SDS011;47573;43.832;5.974;2022-08-01T19:24:31;82.28;;;45.97;;
61673;SDS011;47573;43.832;5.974;2022-08-01T19:29:32;90.43;;;47.35;;
61673;SDS011;47573;43.832;5.974;2022-08-01T19:34:35;86.93;;;51.50;;
61673;SDS011;47573;43.832;5.974;2022-08-01T19:39:46;77.75;;;43.88;;
61673;SDS011;47573;43.832;5.974;2022-08-01T19:44:46;50.65;;;28.90;;
61673;SDS011;47573;43.832;5.974;2022-08-01T19:49:48;63.70;;;26.23;;
61673;SDS011;47573;43.832;5.974;2022-08-01T19:54:49;34.85;;;16.08;;
61673;SDS011;47573;43.832;5.974;2022-08-01T19:59:54;31.55;;;12.80;;
61673;SDS011;47573;43.832;5.974;2022-08-01T20:04:55;107.63;;;55.63;;
61673;SDS011;47573;43.832;5.974;2022-08-01T20:09:58;73.43;;;38.53;;
61673;SDS011;47573;43.832;5.974;2022-08-01T20:14:59;33.95;;;16.33;;
61673;SDS011;47573;43.832;5.974;2022-08-01T20:20:01;86.63;;;49.88;;
61673;SDS011;47573;43.832;5.974;2022-08-01T20:25:03;84.72;;;47.63;;
61673;SDS011;47573;43.832;5.974;2022-08-01T20:30:06;46.33;;;23.90;;
61673;SDS011;47573;43.832;5.974;2022-08-01T20:35:08;35.35;;;17.08;;
61673;SDS011;47573;43.832;5.974;2022-08-01T20:40:11;70.45;;;41.78;;
61673;SDS011;47573;43.832;5.974;2022-08-01T20:45:12;58.30;;;35.63;;
61673;SDS011;47573;43.832;5.974;2022-08-01T20:50:15;31.67;;;18.63;;
61673;SDS011;47573;43.832;5.974;2022-08-01T20:55:17;50.20;;;26.13;;
61673;SDS011;47573;43.832;5.974;2022-08-01T21:00:18;109.10;;;65.38;;
61673;SDS011;47573;43.832;5.974;2022-08-01T21:05:20;64.88;;;39.45;;
61673;SDS011;47573;43.832;5.974;2022-08-01T21:10:27;30.77;;;17.23;;
61673;SDS011;47573;43.832;5.974;2022-08-01T21:15:30;178.37;;;104.70;;
61673;SDS011;47573;43.832;5.974;2022-08-01T21:20:32;44.92;;;24.60;;
61673;SDS011;47573;43.832;5.974;2022-08-01T21:25:35;26.55;;;14.82;;
61673;SDS011;47573;43.832;5.974;2022-08-01T21:30:36;31.95;;;17.50;;
61673;SDS011;47573;43.832;5.974;2022-08-01T21:35:38;26.85;;;12.93;;
61673;SDS011;47573;43.832;5.974;2022-08-01T21:40:40;24.38;;;13.43;;
61673;SDS011;47573;43.832;5.974;2022-08-01T21:45:42;24.00;;;12.07;;
61673;SDS011;47573;43.832;5.974;2022-08-01T21:50:43;41.33;;;25.13;;
61673;SDS011;47573;43.832;5.974;2022-08-01T21:55:59;107.22;;;65.28;;
61673;SDS011;47573;43.832;5.974;2022-08-01T22:01:08;36.25;;;19.25;;
61673;SDS011;47573;43.832;5.974;2022-08-01T22:06:12;92.70;;;55.83;;
61673;SDS011;47573;43.832;5.974;2022-08-01T22:11:16;51.40;;;31.23;;
61673;SDS011;47573;43.832;5.974;2022-08-01T22:16:18;80.00;;;51.38;;
61673;SDS011;47573;43.832;5.974;2022-08-01T22:21:20;47.75;;;26.65;;
61673;SDS011;47573;43.832;5.974;2022-08-01T22:26:22;29.15;;;17.52;;
61673;SDS011;47573;43.832;5.974;2022-08-01T22:31:23;20.70;;;12.15;;
61673;SDS011;47573;43.832;5.974;2022-08-01T22:36:23;18.33;;;9.88;;
61673;SDS011;47573;43.832;5.974;2022-08-01T22:41:27;15.55;;;9.23;;
61673;SDS011;47573;43.832;5.974;2022-08-01T22:46:34;17.98;;;10.60;;
61673;SDS011;47573;43.832;5.974;2022-08-01T22:51:44;38.38;;;17.13;;
61673;SDS011;47573;43.832;5.974;2022-08-01T22:56:55;27.95;;;13.75;;
61673;SDS011;47573;43.832;5.974;2022-08-01T23:02:00;22.30;;;12.18;;
61673;SDS011;47573;43.832;5.974;2022-08-01T23:07:04;18.73;;;10.83;;
61673;SDS011;47573;43.832;5.974;2022-08-01T23:12:07;59.22;;;37.50;;
61673;SDS011;47573;43.832;5.974;2022-08-01T23:17:09;125.53;;;78.93;;
61673;SDS011;47573;43.832;5.974;2022-08-01T23:22:12;79.80;;;48.28;;
61673;SDS011;47573;43.832;5.974;2022-08-01T23:27:14;80.22;;;51.88;;
61673;SDS011;47573;43.832;5.974;2022-08-01T23:32:16;53.60;;;28.42;;
61673;SDS011;47573;43.832;5.974;2022-08-01T23:37:17;159.70;;;94.88;;
61673;SDS011;47573;43.832;5.974;2022-08-01T23:42:20;116.18;;;67.78;;
61673;SDS011;47573;43.832;5.974;2022-08-01T23:47:20;48.17;;;28.42;;
61673;SDS011;47573;43.832;5.974;2022-08-01T23:52:21;20.30;;;11.18;;
61673;SDS011;47573;43.832;5.974;2022-08-01T23:57:23;234.30;;;150.50;;
